This is the latest recevied weather packets stored in our database for station/object DH0DM-13. If no packets are shown the sender has not sent any weather packets the latest 1 day(s).
| Time | Temp. | Humidity | Pressure | Rain* | Wind** | Luminosity | Snow |
|---|---|---|---|---|---|---|---|
| 1778071770 | 18.89° C | 67% | 979.5 hPa | 6.1 mm | 5.36 m/s, 242° | - | - |
| 1778071169 | 18.33° C | 68% | 979.4 hPa | 6.1 mm | 2.24 m/s, 285° | - | - |
| 1778069967 | 18.33° C | 71% | 979.6 hPa | 6.1 mm | 0.45 m/s, 271° | - | - |
| 1778066963 | 17.78° C | 70% | 979.6 hPa | 6.1 mm | 2.68 m/s, 283° | - | - |
| 1778066362 | 17.78° C | 71% | 979.6 hPa | 6.1 mm | 3.13 m/s, 283° | - | - |
| 1778065761 | 17.22° C | 71% | 979.6 hPa | 6.1 mm | 10.28 m/s, 234° | - | - |
| 1778065160 | 17.22° C | 74% | 979.5 hPa | 6.1 mm | 2.24 m/s, 235° | - | - |
| 1778064559 | 17.78° C | 70% | 979.3 hPa | 6.1 mm | 4.92 m/s, 244° | - | - |
| 1778061555 | 17.22° C | 73% | 979.3 hPa | 6.1 mm | 2.68 m/s, 214° | - | - |
| 1778060954 | 16.67° C | 73% | 979.4 hPa | 6.1 mm | 5.36 m/s, 229° | - | - |
| 1778057950 | 16.11° C | 75% | 978.6 hPa | 6.1 mm | 6.71 m/s, 256° | - | - |
| 1778057349 | 16.67° C | 75% | 978.5 hPa | 6.1 mm | 6.71 m/s, 243° | - | - |
| 1778056748 | 17.22° C | 72% | 978.5 hPa | 6.1 mm | 11.18 m/s, 204° | - | - |
| 1778056147 | 16.67° C | 73% | 978.3 hPa | 6.1 mm | 13.41 m/s, 213° | - | - |
| 1778055546 | 16.67° C | 75% | 978.3 hPa | 6.1 mm | 8.49 m/s, 188° | - | - |
| 1778054945 | 16.11° C | 76% | 978.1 hPa | 6.1 mm | 12.96 m/s, 236° | - | - |
| 1778053743 | 16.67° C | 75% | 978 hPa | 6.1 mm | 13.86 m/s, 224° | - | - |
| 1778053142 | 15.56° C | 81% | 978.2 hPa | 6.1 mm | 4.92 m/s, 255° | - | - |
| 1778051339 | 15° C | 82% | 978.3 hPa | 6.1 mm | 5.81 m/s, 206° | - | - |
| 1778049537 | 14.44° C | 85% | 978.3 hPa | 6.1 mm | 6.26 m/s, 182° | - | - |
| 1778048936 | 14.44° C | 84% | 978.3 hPa | 6.1 mm | 6.71 m/s, 180° | - | - |
| 1778048335 | 15° C | 83% | 978.2 hPa | 6.1 mm | 2.68 m/s, 212° | - | - |
| 1778047734 | 14.44° C | 84% | 978.1 hPa | 6.1 mm | 5.36 m/s, 193° | - | - |
| 1778047133 | 13.89° C | 87% | 978 hPa | 6.1 mm | 0.89 m/s, 176° | - | - |
| 1778046532 | 13.33° C | 87% | 978 hPa | 6.1 mm | 3.13 m/s, 169° | - | - |
* Rain since midnight (hover to see other rain measurements)
** Current wind speed in m/s (hover to see current wind gust speed)